Time;durP1;ratioP1;P1;durP2;ratioP2;P2;SDS_P1;SDS_P2;PMS_P1;PMS_P2;Temp;Humidity;BMP_temperature;BMP_pressure;BME280_temperature;BME280_humidity;BME280_pressure;Samples;Min_cycle;Max_cycle;Signal;HPM_P1;HPM_P2
2021/12/31 00:02:27;;;;;;;3.33;1.00;;;12.30;99.90;;;;;;10340771;28;20042;-62
2021/12/31 00:07:29;;;;;;;2.05;0.60;;;12.20;99.90;;;;;;10334684;28;20109;-62
2021/12/31 00:12:31;;;;;;;4.95;0.90;;;12.30;99.90;;;;;;10338975;28;20073;-62
2021/12/31 00:17:33;;;;;;;1.13;0.50;;;12.30;99.90;;;;;;10344209;28;20058;-61
2021/12/31 00:23:00;;;;;;;3.90;0.70;;;12.30;99.90;;;;;;10338921;28;20136;-61
2021/12/31 00:27:57;;;;;;;2.80;0.57;;;12.20;99.90;;;;;;10335874;28;20077;-61
2021/12/31 00:33:01;;;;;;;2.15;1.00;;;12.20;99.90;;;;;;10341957;28;20139;-61
2021/12/31 00:38:04;;;;;;;2.10;0.70;;;12.20;99.90;;;;;;10338779;28;20053;-62
2021/12/31 00:43:11;;;;;;;5.30;1.10;;;12.20;99.90;;;;;;10339951;28;20630;-61
2021/12/31 00:48:13;;;;;;;2.67;0.75;;;12.30;99.90;;;;;;10340079;28;20136;-61
2021/12/31 00:53:14;;;;;;;4.70;0.80;;;12.30;99.90;;;;;;10340838;28;20524;-62
2021/12/31 00:58:16;;;;;;;2.42;0.68;;;12.20;99.90;;;;;;10343751;28;20052;-61
2021/12/31 01:03:18;;;;;;;1.95;0.80;;;12.20;99.90;;;;;;10339323;28;20077;-62
2021/12/31 01:08:19;;;;;;;1.48;0.80;;;12.20;99.90;;;;;;10340798;28;20085;-61
2021/12/31 01:13:31;;;;;;;3.17;0.60;;;12.30;99.90;;;;;;10339180;28;20066;-61
2021/12/31 01:23:53;;;;;;;1.10;0.57;;;12.30;99.90;;;;;;10336668;28;20566;-61
2021/12/31 01:28:54;;;;;;;1.30;0.70;;;12.30;99.90;;;;;;10340170;28;20049;-61
2021/12/31 01:33:56;;;;;;;2.58;0.50;;;12.30;99.90;;;;;;10338833;28;20062;-61
2021/12/31 01:38:58;;;;;;;1.38;0.85;;;12.30;99.90;;;;;;10340553;28;20125;-61
2021/12/31 01:44:07;;;;;;;3.33;0.77;;;12.30;99.90;;;;;;10334945;28;20526;-61
2021/12/31 01:49:18;;;;;;;4.50;0.60;;;12.40;99.90;;;;;;10342318;28;20086;-61
2021/12/31 01:54:20;;;;;;;2.15;0.50;;;12.40;99.90;;;;;;10332731;28;20120;-61
2021/12/31 01:59:24;;;;;;;3.30;0.40;;;12.40;99.90;;;;;;10336748;28;20057;-61
2021/12/31 02:04:28;;;;;;;0.82;0.50;;;12.40;99.90;;;;;;10339479;28;20081;-61
2021/12/31 02:09:35;;;;;;;3.30;0.55;;;12.40;99.90;;;;;;10337811;28;20077;-61
2021/12/31 02:14:37;;;;;;;3.00;0.40;;;12.40;99.90;;;;;;10342761;28;20073;-61
2021/12/31 02:19:39;;;;;;;1.48;0.45;;;12.40;99.90;;;;;;10338721;28;20139;-61
2021/12/31 02:24:42;;;;;;;5.88;0.85;;;12.30;99.90;;;;;;10340662;28;20065;-61
2021/12/31 02:29:43;;;;;;;4.90;0.60;;;12.30;99.90;;;;;;10342330;28;21148;-61
2021/12/31 02:34:46;;;;;;;1.88;0.60;;;12.30;99.90;;;;;;10338259;28;20050;-61
2021/12/31 02:39:48;;;;;;;4.40;0.50;;;12.30;99.90;;;;;;10341306;28;20141;-61
2021/12/31 02:44:51;;;;;;;2.75;0.60;;;12.30;99.90;;;;;;10335092;28;20041;-62
2021/12/31 02:49:54;;;;;;;4.65;0.73;;;12.30;99.90;;;;;;10337388;28;20049;-61
2021/12/31 02:54:57;;;;;;;1.52;0.40;;;12.30;99.90;;;;;;10336651;28;20057;-61
2021/12/31 02:59:59;;;;;;;3.20;0.70;;;12.20;99.90;;;;;;10339712;28;20077;-61
2021/12/31 03:05:01;;;;;;;3.55;0.40;;;12.30;99.90;;;;;;10336946;28;20132;-61
2021/12/31 03:10:05;;;;;;;4.75;0.60;;;12.30;99.90;;;;;;10335209;28;20405;-61
2021/12/31 03:15:08;;;;;;;2.65;1.42;;;12.30;99.90;;;;;;10338714;28;20049;-61
2021/12/31 03:20:15;;;;;;;3.65;0.57;;;12.30;99.90;;;;;;10334014;28;20150;-61
2021/12/31 03:25:17;;;;;;;3.13;0.50;;;12.30;99.90;;;;;;10340993;28;20070;-62
2021/12/31 03:30:19;;;;;;;4.30;0.88;;;12.20;99.90;;;;;;10342185;28;20073;-61
2021/12/31 03:35:21;;;;;;;2.55;0.43;;;12.30;99.90;;;;;;10333138;28;20165;-61
2021/12/31 03:40:23;;;;;;;1.17;0.50;;;12.20;99.90;;;;;;10338501;28;20145;-61
2021/12/31 03:45:25;;;;;;;2.70;0.43;;;12.20;99.90;;;;;;10344284;28;20069;-61
2021/12/31 03:50:27;;;;;;;2.25;0.60;;;12.20;99.90;;;;;;10348609;28;20049;-62
2021/12/31 03:55:29;;;;;;;2.50;0.60;;;12.20;99.90;;;;;;10339003;28;20140;-61
2021/12/31 04:00:31;;;;;;;4.00;0.50;;;12.20;99.90;;;;;;10338769;28;20144;-61
2021/12/31 04:05:33;;;;;;;1.83;0.47;;;12.20;99.90;;;;;;10344382;28;20496;-62
2021/12/31 04:10:35;;;;;;;2.72;0.47;;;12.20;99.90;;;;;;10341315;28;20516;-61
2021/12/31 04:15:37;;;;;;;5.40;0.90;;;12.10;99.90;;;;;;10341089;28;20404;-62
2021/12/31 04:20:42;;;;;;;4.88;0.60;;;12.10;99.90;;;;;;10338148;28;20107;-61
2021/12/31 04:25:44;;;;;;;2.55;0.60;;;12.00;99.90;;;;;;10346122;28;20492;-61
2021/12/31 04:30:46;;;;;;;3.70;0.90;;;11.90;99.90;;;;;;10338841;28;20077;-61
2021/12/31 04:35:48;;;;;;;3.28;0.60;;;11.90;99.90;;;;;;10337013;28;20455;-61
2021/12/31 04:40:50;;;;;;;3.13;0.50;;;11.80;99.90;;;;;;10342926;28;20042;-61
2021/12/31 04:45:51;;;;;;;3.58;0.60;;;11.70;99.90;;;;;;10342524;28;20465;-61
2021/12/31 04:50:53;;;;;;;3.15;0.60;;;11.70;99.90;;;;;;10340006;28;20074;-61
2021/12/31 04:55:55;;;;;;;2.53;0.73;;;11.60;99.90;;;;;;10343533;28;20112;-61
2021/12/31 05:00:57;;;;;;;0.75;0.47;;;11.50;99.90;;;;;;10338533;28;20139;-61
2021/12/31 05:05:58;;;;;;;4.07;0.60;;;11.50;99.90;;;;;;10338582;28;20049;-61
2021/12/31 05:11:00;;;;;;;4.50;1.23;;;11.40;99.90;;;;;;10338124;28;20050;-61
2021/12/31 05:16:04;;;;;;;3.97;0.70;;;11.50;99.90;;;;;;10338555;28;20117;-61
2021/12/31 05:21:05;;;;;;;5.13;1.00;;;11.50;99.90;;;;;;10340300;28;20098;-61
2021/12/31 05:26:07;;;;;;;4.03;1.52;;;11.60;99.90;;;;;;10338638;28;20077;-61
2021/12/31 05:31:09;;;;;;;5.88;1.33;;;11.60;99.90;;;;;;10344116;28;20108;-61
2021/12/31 05:36:11;;;;;;;2.85;0.88;;;11.70;99.90;;;;;;10339535;28;20057;-61
2021/12/31 05:41:12;;;;;;;4.43;0.98;;;11.70;99.90;;;;;;10339595;28;20042;-61
2021/12/31 05:46:14;;;;;;;5.50;0.77;;;11.70;99.90;;;;;;10338484;28;20574;-61
2021/12/31 05:51:16;;;;;;;6.88;1.35;;;11.80;99.90;;;;;;10341908;28;20054;-61
2021/12/31 05:56:18;;;;;;;2.03;0.80;;;11.80;99.90;;;;;;10338693;28;20058;-61
2021/12/31 06:01:19;;;;;;;3.35;1.13;;;11.80;99.90;;;;;;10334157;28;20069;-61
2021/12/31 06:06:21;;;;;;;3.00;0.85;;;11.80;99.90;;;;;;10332828;28;20046;-61
2021/12/31 06:11:23;;;;;;;4.18;1.52;;;11.70;99.90;;;;;;10345743;28;20076;-61
2021/12/31 06:16:25;;;;;;;10.57;1.20;;;11.60;99.90;;;;;;10333836;28;20073;-61
2021/12/31 06:21:27;;;;;;;7.72;1.25;;;11.50;99.90;;;;;;10339237;28;20046;-61
2021/12/31 06:26:29;;;;;;;6.20;1.20;;;11.40;99.90;;;;;;10337848;28;20548;-61
2021/12/31 06:31:31;;;;;;;5.40;0.95;;;11.30;99.90;;;;;;10339325;28;20148;-61
2021/12/31 06:36:32;;;;;;;4.22;1.58;;;11.20;99.90;;;;;;10338962;28;20049;-61
2021/12/31 06:41:34;;;;;;;3.45;1.40;;;11.10;99.90;;;;;;10338159;28;20128;-61
2021/12/31 06:46:36;;;;;;;3.03;1.73;;;11.00;99.90;;;;;;10339898;28;20049;-61
2021/12/31 06:51:38;;;;;;;4.97;1.50;;;10.90;99.90;;;;;;10337258;28;20042;-61
2021/12/31 06:56:40;;;;;;;4.93;1.20;;;10.80;99.90;;;;;;10333548;28;20046;-61
2021/12/31 07:01:41;;;;;;;7.18;6.30;;;10.80;99.90;;;;;;10111390;28;20181;-61
2021/12/31 07:06:43;;;;;;;11.68;6.32;;;10.70;99.90;;;;;;9550232;28;20629;-61
2021/12/31 07:11:46;;;;;;;12.90;2.05;;;10.60;99.90;;;;;;9752736;28;20038;-60
2021/12/31 07:16:48;;;;;;;2.80;1.17;;;10.50;99.90;;;;;;10342151;28;20200;-61
2021/12/31 07:21:50;;;;;;;7.30;1.50;;;10.50;99.90;;;;;;10346979;28;20476;-61
2021/12/31 07:26:51;;;;;;;9.90;1.92;;;10.40;99.90;;;;;;10340476;28;20054;-61
2021/12/31 07:31:53;;;;;;;4.32;1.88;;;10.30;99.90;;;;;;10342340;28;20069;-60
2021/12/31 07:36:55;;;;;;;7.32;1.77;;;10.30;99.90;;;;;;10345474;28;20125;-62
2021/12/31 07:41:56;;;;;;;5.90;2.00;;;10.20;99.90;;;;;;10344989;28;20123;-61
2021/12/31 07:46:58;;;;;;;4.60;1.60;;;10.20;99.90;;;;;;10346275;28;20709;-62
2021/12/31 07:51:59;;;;;;;7.38;1.92;;;10.20;99.90;;;;;;10345617;28;20115;-61
2021/12/31 07:57:01;;;;;;;6.95;1.92;;;10.10;99.90;;;;;;10340043;28;20100;-61
2021/12/31 08:02:03;;;;;;;5.35;1.95;;;10.10;99.90;;;;;;10338351;28;20141;-61
2021/12/31 08:07:06;;;;;;;6.75;2.00;;;10.00;99.90;;;;;;10352712;28;20053;-61
2021/12/31 08:12:08;;;;;;;4.25;1.67;;;10.10;99.90;;;;;;10342108;28;20172;-61
2021/12/31 08:17:10;;;;;;;9.43;2.08;;;10.00;99.90;;;;;;10338929;28;20066;-61
2021/12/31 08:22:11;;;;;;;6.28;2.03;;;10.00;99.90;;;;;;10342803;28;20070;-61
2021/12/31 08:27:13;;;;;;;6.20;1.73;;;10.00;99.90;;;;;;10341006;28;20128;-61
2021/12/31 08:32:15;;;;;;;3.72;1.65;;;10.00;99.90;;;;;;10339332;28;20364;-61
2021/12/31 08:37:17;;;;;;;7.07;2.22;;;10.00;99.90;;;;;;10339490;28;20512;-62
2021/12/31 08:42:19;;;;;;;7.68;2.10;;;10.10;99.90;;;;;;10343498;28;20560;-61
2021/12/31 08:47:21;;;;;;;7.88;2.05;;;10.10;99.90;;;;;;10346647;28;20458;-61
2021/12/31 08:52:22;;;;;;;8.00;1.92;;;10.20;99.90;;;;;;10341146;28;20104;-61
2021/12/31 08:57:24;;;;;;;4.22;1.92;;;10.30;99.90;;;;;;10339670;28;20050;-62
2021/12/31 09:02:25;;;;;;;8.18;1.85;;;10.40;99.90;;;;;;10340972;28;20536;-61
2021/12/31 09:07:27;;;;;;;4.53;1.63;;;10.50;99.90;;;;;;10341274;28;20500;-61
2021/12/31 09:12:29;;;;;;;3.80;1.63;;;10.50;99.90;;;;;;10336296;28;20049;-61
2021/12/31 09:17:31;;;;;;;5.97;1.98;;;10.60;99.90;;;;;;10335725;28;20077;-61
2021/12/31 09:22:32;;;;;;;4.32;1.75;;;10.60;99.90;;;;;;10339485;28;20050;-61
2021/12/31 09:27:34;;;;;;;5.93;1.58;;;10.80;99.90;;;;;;10337749;28;20160;-61
2021/12/31 09:32:36;;;;;;;6.57;1.33;;;10.90;99.90;;;;;;10335318;28;20077;-62
2021/12/31 09:37:38;;;;;;;3.83;1.50;;;11.00;99.90;;;;;;10338641;28;20323;-62
2021/12/31 09:42:44;;;;;;;3.88;1.60;;;11.00;99.90;;;;;;10340676;28;20085;-62
2021/12/31 09:47:46;;;;;;;3.17;1.90;;;11.10;99.90;;;;;;10336737;28;20112;-61
2021/12/31 09:52:48;;;;;;;10.45;2.33;;;11.10;99.90;;;;;;10339187;28;20069;-60
2021/12/31 09:57:49;;;;;;;3.67;2.08;;;11.20;99.90;;;;;;10338781;28;20070;-61
2021/12/31 10:03:10;;;;;;;5.05;1.77;;;11.30;99.90;;;;;;10339295;28;20440;-61
2021/12/31 10:08:28;;;;;;;3.83;1.15;;;11.40;99.90;;;;;;10338286;28;20068;-61
2021/12/31 10:13:30;;;;;;;3.58;1.35;;;11.40;99.90;;;;;;10337000;28;20050;-60
2021/12/31 10:18:35;;;;;;;6.68;1.77;;;11.40;99.90;;;;;;10338100;28;20104;-61
2021/12/31 10:23:38;;;;;;;3.40;1.30;;;11.50;99.90;;;;;;10335097;28;20050;-60
2021/12/31 10:28:56;;;;;;;3.90;1.05;;;11.60;99.90;;;;;;10346857;28;20082;-60
2021/12/31 10:34:02;;;;;;;6.07;1.63;;;11.70;99.90;;;;;;10342833;28;20134;-60
2021/12/31 10:39:22;;;;;;;4.75;1.13;;;11.70;99.90;;;;;;10340712;28;20552;-60
2021/12/31 10:44:54;;;;;;;2.92;0.93;;;11.80;99.90;;;;;;10335355;28;20102;-60
2021/12/31 10:50:04;;;;;;;4.22;1.27;;;12.00;99.90;;;;;;10342121;28;20049;-60
2021/12/31 10:55:19;;;;;;;6.55;1.58;;;12.10;99.90;;;;;;10349907;28;20066;-60
2021/12/31 11:00:22;;;;;;;5.43;1.15;;;12.20;99.90;;;;;;10349774;28;20420;-60
2021/12/31 11:05:24;;;;;;;4.60;1.30;;;12.30;99.90;;;;;;10345522;28;20464;-59
2021/12/31 11:10:30;;;;;;;2.67;1.20;;;12.30;99.90;;;;;;10347403;28;20473;-59
2021/12/31 11:15:31;;;;;;;4.03;1.30;;;12.30;99.90;;;;;;10342369;28;20049;-59
2021/12/31 11:20:33;;;;;;;2.55;0.90;;;12.40;99.90;;;;;;10345684;28;20488;-59
2021/12/31 11:25:35;;;;;;;4.90;0.73;;;12.40;99.90;;;;;;10344717;28;20073;-60
2021/12/31 11:30:42;;;;;;;6.20;1.08;;;12.40;99.90;;;;;;10345678;28;20108;-60
2021/12/31 11:35:59;;;;;;;3.45;0.95;;;12.50;99.90;;;;;;10356843;28;20068;-60
2021/12/31 11:41:04;;;;;;;3.78;1.02;;;12.50;99.90;;;;;;10341990;28;20492;-59
2021/12/31 11:46:09;;;;;;;9.60;1.65;;;12.50;99.90;;;;;;10349022;28;20045;-59
2021/12/31 11:51:16;;;;;;;3.70;0.75;;;12.40;99.90;;;;;;10346179;28;20496;-59
2021/12/31 11:56:41;;;;;;;3.22;0.95;;;12.50;99.90;;;;;;10359340;28;20103;-59
2021/12/31 12:01:47;;;;;;;2.95;0.50;;;12.50;99.90;;;;;;10343680;28;20050;-60
2021/12/31 12:07:11;;;;;;;1.90;0.60;;;12.50;99.90;;;;;;10340226;28;20128;-59
2021/12/31 12:12:23;;;;;;;3.65;1.00;;;12.50;99.90;;;;;;10343559;28;20050;-60
2021/12/31 12:17:28;;;;;;;1.02;0.60;;;12.50;99.90;;;;;;10339374;28;20583;-61
2021/12/31 12:22:37;;;;;;;1.30;0.65;;;12.60;99.90;;;;;;10337559;28;20496;-61
2021/12/31 12:27:39;;;;;;;2.33;0.80;;;12.60;99.90;;;;;;10337000;28;20050;-61
2021/12/31 12:38:00;;;;;;;4.28;0.60;;;12.60;99.90;;;;;;10342914;28;20092;-61
2021/12/31 12:43:05;;;;;;;4.43;0.80;;;12.70;99.90;;;;;;10341490;28;20676;-61
2021/12/31 12:48:08;;;;;;;5.25;0.60;;;12.70;99.90;;;;;;10338657;28;20073;-61
2021/12/31 12:53:22;;;;;;;2.58;0.80;;;12.80;99.90;;;;;;10336569;28;20084;-61
2021/12/31 12:58:24;;;;;;;1.85;0.70;;;12.90;99.90;;;;;;10331960;28;20077;-60
2021/12/31 13:03:26;;;;;;;1.88;0.60;;;12.80;99.90;;;;;;10339797;28;20127;-61
2021/12/31 13:08:28;;;;;;;3.95;0.70;;;12.80;99.90;;;;;;10336341;28;20492;-61
2021/12/31 13:13:31;;;;;;;3.80;1.25;;;12.80;99.90;;;;;;10340176;28;20463;-61
2021/12/31 13:18:36;;;;;;;3.55;1.10;;;12.80;99.90;;;;;;10339686;28;20116;-59
2021/12/31 13:23:39;;;;;;;2.65;1.30;;;12.80;99.90;;;;;;10341471;28;20556;-61
2021/12/31 13:28:41;;;;;;;2.45;0.50;;;12.80;99.90;;;;;;10333773;28;20124;-61
2021/12/31 13:33:48;;;;;;;1.95;0.63;;;12.70;99.90;;;;;;10337088;28;20104;-61
2021/12/31 13:39:13;;;;;;;3.58;1.90;;;12.70;99.90;;;;;;10341327;28;20110;-61
2021/12/31 13:44:19;;;;;;;3.05;0.60;;;12.80;99.90;;;;;;10338761;28;20050;-60
2021/12/31 13:49:23;;;;;;;3.53;0.70;;;12.80;99.90;;;;;;10334610;28;20056;-61
2021/12/31 13:54:41;;;;;;;2.80;1.27;;;12.80;99.90;;;;;;10331246;28;20054;-61
2021/12/31 13:59:42;;;;;;;5.03;1.40;;;12.70;99.90;;;;;;10336961;28;20081;-61
2021/12/31 14:04:59;;;;;;;2.35;0.80;;;12.70;99.90;;;;;;10342169;28;20139;-61
2021/12/31 14:10:04;;;;;;;1.53;0.70;;;12.70;99.90;;;;;;10335688;28;20062;-61
2021/12/31 14:15:07;;;;;;;4.53;1.20;;;12.60;99.90;;;;;;10338249;28;20041;-61
2021/12/31 14:20:10;;;;;;;4.72;1.60;;;12.60;99.90;;;;;;10338140;28;20133;-61
2021/12/31 14:25:12;;;;;;;2.65;0.80;;;12.60;99.90;;;;;;10339363;28;20049;-60
2021/12/31 14:30:14;;;;;;;3.95;1.35;;;12.60;99.90;;;;;;10332850;28;20053;-61
2021/12/31 14:35:22;;;;;;;5.88;2.38;;;12.60;99.90;;;;;;10338227;28;20046;-61
2021/12/31 14:40:24;;;;;;;1.77;0.68;;;12.60;99.90;;;;;;10339697;28;20068;-60
2021/12/31 14:45:25;;;;;;;1.80;1.40;;;12.60;99.90;;;;;;10335481;28;20046;-60
2021/12/31 14:50:27;;;;;;;2.80;0.95;;;12.50;99.90;;;;;;10339187;28;20050;-61
2021/12/31 14:55:29;;;;;;;4.35;1.58;;;12.40;99.90;;;;;;10342439;28;20140;-60
2021/12/31 15:00:32;;;;;;;3.40;1.30;;;12.30;99.90;;;;;;10334002;28;20058;-60
2021/12/31 15:05:34;;;;;;;6.10;1.40;;;12.30;99.90;;;;;;10336401;28;20069;-60
2021/12/31 15:10:35;;;;;;;3.55;1.65;;;12.20;99.90;;;;;;10341047;28;20512;-60
2021/12/31 15:15:38;;;;;;;5.00;1.63;;;12.20;99.90;;;;;;10343546;28;20046;-61
2021/12/31 15:20:40;;;;;;;3.70;1.92;;;12.10;99.90;;;;;;10336761;28;20054;-61
2021/12/31 15:25:42;;;;;;;3.95;1.83;;;12.10;99.90;;;;;;10339648;28;20057;-60
2021/12/31 15:30:43;;;;;;;6.28;1.65;;;12.20;99.90;;;;;;10336191;28;20139;-61
2021/12/31 15:35:45;;;;;;;3.40;1.90;;;12.10;99.90;;;;;;10339038;28;20136;-60
2021/12/31 15:40:47;;;;;;;4.88;1.77;;;12.00;99.90;;;;;;10347605;28;20065;-61
2021/12/31 15:45:48;;;;;;;2.83;1.95;;;11.90;99.90;;;;;;10346353;28;20108;-62
2021/12/31 15:50:50;;;;;;;4.15;2.17;;;11.80;99.90;;;;;;10341834;28;20077;-62
2021/12/31 15:55:52;;;;;;;4.40;1.75;;;11.80;99.90;;;;;;10345261;28;20110;-62
2021/12/31 16:00:54;;;;;;;6.18;1.77;;;11.70;99.90;;;;;;10356192;28;20461;-61
2021/12/31 16:05:57;;;;;;;4.95;2.42;;;11.70;99.90;;;;;;10344576;28;20510;-61
2021/12/31 16:10:59;;;;;;;4.55;2.13;;;11.70;99.90;;;;;;10340457;28;20369;-61
2021/12/31 16:16:01;;;;;;;4.63;1.73;;;11.60;99.90;;;;;;10344235;28;20077;-61
2021/12/31 16:21:04;;;;;;;3.97;1.80;;;11.50;99.90;;;;;;10343418;28;20054;-61
2021/12/31 16:26:05;;;;;;;4.90;1.60;;;11.50;99.90;;;;;;10339922;28;20112;-62
2021/12/31 16:31:09;;;;;;;5.57;1.50;;;11.50;99.90;;;;;;10339001;28;20482;-62
2021/12/31 16:36:11;;;;;;;3.40;2.00;;;11.40;99.90;;;;;;10338693;28;20132;-61
2021/12/31 16:41:12;;;;;;;6.03;1.90;;;11.40;99.90;;;;;;10344658;28;20101;-62
2021/12/31 16:46:14;;;;;;;6.00;2.20;;;11.30;99.90;;;;;;10339427;28;20046;-61
2021/12/31 16:51:17;;;;;;;6.57;5.53;;;11.30;99.90;;;;;;10023466;28;20056;-61
2021/12/31 16:56:19;;;;;;;3.88;2.00;;;11.20;99.90;;;;;;10175842;28;20068;-61
2021/12/31 17:01:20;;;;;;;4.70;2.35;;;11.10;99.90;;;;;;10339480;28;20124;-61
2021/12/31 17:06:22;;;;;;;4.20;2.33;;;11.00;99.90;;;;;;10333684;28;20057;-60
2021/12/31 17:11:24;;;;;;;5.60;2.60;;;10.90;99.90;;;;;;10340065;28;20208;-61
2021/12/31 17:16:26;;;;;;;7.05;2.60;;;10.80;99.90;;;;;;10342721;28;20115;-61
2021/12/31 17:21:28;;;;;;;7.70;3.22;;;10.80;99.90;;;;;;10340073;28;20128;-60
2021/12/31 17:26:29;;;;;;;4.97;3.10;;;10.70;99.90;;;;;;10340424;28;20062;-61
2021/12/31 17:31:31;;;;;;;7.40;3.42;;;10.60;99.90;;;;;;10348256;28;20468;-61
2021/12/31 17:36:33;;;;;;;8.13;3.15;;;10.50;99.90;;;;;;10336685;28;20504;-60
2021/12/31 17:41:35;;;;;;;8.05;3.08;;;10.40;99.90;;;;;;10339445;28;20081;-61
2021/12/31 17:46:36;;;;;;;6.35;3.05;;;10.50;99.90;;;;;;10335866;28;20069;-60
2021/12/31 17:51:38;;;;;;;7.00;3.28;;;10.50;99.90;;;;;;10339488;28;20588;-61
2021/12/31 17:56:42;;;;;;;6.28;3.08;;;10.50;99.90;;;;;;10340215;28;20119;-60
2021/12/31 18:01:43;;;;;;;6.82;3.17;;;10.60;99.90;;;;;;10337983;28;20058;-60
2021/12/31 18:06:45;;;;;;;8.65;2.50;;;10.60;99.90;;;;;;10341592;28;20131;-61
2021/12/31 18:11:47;;;;;;;7.70;3.47;;;10.60;99.90;;;;;;10338523;28;20069;-64
2021/12/31 18:16:48;;;;;;;8.07;3.20;;;10.70;99.90;;;;;;10333358;28;20172;-63
2021/12/31 18:21:51;;;;;;;8.40;3.45;;;10.70;99.90;;;;;;10342295;28;20077;-63
2021/12/31 18:26:53;;;;;;;8.07;3.80;;;10.70;99.90;;;;;;10342559;28;20663;-63
2021/12/31 18:31:55;;;;;;;6.78;3.03;;;10.80;99.90;;;;;;10335354;28;20546;-63
2021/12/31 18:36:57;;;;;;;11.07;4.60;;;10.70;99.90;;;;;;10341516;28;20125;-63
2021/12/31 18:41:58;;;;;;;8.68;3.65;;;10.80;99.90;;;;;;10336963;28;20049;-63
2021/12/31 18:47:18;;;;;;;7.57;3.55;;;10.80;99.90;;;;;;10343023;28;20512;-63
2021/12/31 18:52:20;;;;;;;7.82;4.18;;;10.80;99.90;;;;;;10340334;28;20520;-63
2021/12/31 18:57:24;;;;;;;9.23;3.53;;;10.80;99.90;;;;;;10342806;28;20116;-63
2021/12/31 19:02:27;;;;;;;11.02;2.70;;;10.80;99.90;;;;;;10334204;28;20112;-63
2021/12/31 19:07:29;;;;;;;11.15;3.97;;;10.80;99.90;;;;;;10341498;28;20060;-63
2021/12/31 19:12:31;;;;;;;9.32;3.67;;;10.90;99.90;;;;;;10345263;28;20073;-63
2021/12/31 19:17:34;;;;;;;6.78;3.28;;;10.90;99.90;;;;;;10347003;28;20054;-64
2021/12/31 19:22:35;;;;;;;9.30;3.95;;;10.90;99.90;;;;;;10347854;28;20080;-63
2021/12/31 19:27:37;;;;;;;7.03;2.70;;;11.00;99.90;;;;;;10344011;28;20471;-63
2021/12/31 19:32:39;;;;;;;7.30;2.85;;;11.00;99.90;;;;;;10345673;28;20622;-63
2021/12/31 19:37:40;;;;;;;8.25;3.38;;;11.00;99.90;;;;;;10352102;28;20108;-63
2021/12/31 19:42:42;;;;;;;8.18;3.00;;;11.00;99.90;;;;;;10344941;28;20052;-63
2021/12/31 19:47:44;;;;;;;8.07;3.40;;;11.00;99.90;;;;;;10351169;28;20133;-63
2021/12/31 19:52:45;;;;;;;7.53;3.08;;;11.00;99.90;;;;;;10342303;28;20081;-63
2021/12/31 19:57:47;;;;;;;8.77;3.97;;;11.00;99.90;;;;;;10343311;28;20528;-63
2021/12/31 20:02:50;;;;;;;8.32;3.70;;;11.00;99.90;;;;;;10339619;28;20137;-63
2021/12/31 20:07:53;;;;;;;11.30;4.07;;;11.00;99.90;;;;;;10340756;28;20041;-63
2021/12/31 20:12:54;;;;;;;7.65;3.65;;;10.90;99.90;;;;;;10343415;28;20100;-63
2021/12/31 20:17:56;;;;;;;9.07;3.67;;;11.00;99.90;;;;;;10344549;28;20220;-63
2021/12/31 20:22:58;;;;;;;9.65;3.50;;;10.90;99.90;;;;;;10341593;28;20069;-63
2021/12/31 20:28:00;;;;;;;14.10;5.70;;;10.90;99.90;;;;;;10347452;28;20099;-64
2021/12/31 20:33:01;;;;;;;8.52;4.10;;;10.90;99.90;;;;;;10341046;28;20112;-64
2021/12/31 20:38:03;;;;;;;8.95;3.25;;;10.90;99.90;;;;;;10342433;28;20090;-64
2021/12/31 20:43:05;;;;;;;9.65;3.50;;;10.90;99.90;;;;;;10341127;28;20132;-64
2021/12/31 20:48:06;;;;;;;8.43;3.17;;;10.90;99.90;;;;;;10344338;28;20116;-64
2021/12/31 20:53:08;;;;;;;8.20;2.95;;;10.90;99.90;;;;;;10341425;28;20168;-64
2021/12/31 20:58:10;;;;;;;6.82;3.00;;;10.90;99.90;;;;;;10340136;28;20500;-64
2021/12/31 21:03:12;;;;;;;6.70;3.28;;;10.90;99.90;;;;;;10338545;28;20155;-64
2021/12/31 21:08:13;;;;;;;8.50;2.75;;;10.90;99.90;;;;;;10338700;28;20046;-64
2021/12/31 21:13:15;;;;;;;7.38;3.40;;;11.00;99.90;;;;;;10343342;28;20537;-64
2021/12/31 21:18:17;;;;;;;7.53;3.90;;;11.00;99.90;;;;;;10340234;28;20058;-64
2021/12/31 21:23:19;;;;;;;5.97;3.65;;;11.00;99.90;;;;;;10336631;28;20119;-64
2021/12/31 21:28:21;;;;;;;9.75;4.35;;;11.00;99.90;;;;;;10339125;28;20056;-64
2021/12/31 21:33:23;;;;;;;7.20;3.45;;;11.00;99.90;;;;;;10362807;28;20179;-64
2021/12/31 21:38:24;;;;;;;7.22;3.30;;;11.00;99.90;;;;;;10343642;28;20388;-64
2021/12/31 21:43:26;;;;;;;7.75;3.05;;;11.00;99.90;;;;;;10345723;28;20056;-64
2021/12/31 21:48:28;;;;;;;7.78;3.67;;;11.10;99.90;;;;;;10345837;28;20049;-64
2021/12/31 21:53:30;;;;;;;7.57;3.45;;;11.10;99.90;;;;;;10344871;28;20162;-64
2021/12/31 21:58:32;;;;;;;6.60;2.85;;;11.10;99.90;;;;;;10343640;28;20495;-63
2021/12/31 22:03:34;;;;;;;9.38;3.20;;;11.20;99.90;;;;;;10345856;28;20137;-63
2021/12/31 22:08:35;;;;;;;11.82;3.75;;;11.20;99.90;;;;;;10341272;28;20077;-63
2021/12/31 22:13:38;;;;;;;6.88;2.92;;;11.20;99.90;;;;;;10342668;28;20144;-63
2021/12/31 22:18:40;;;;;;;5.10;2.60;;;11.20;99.90;;;;;;10342885;28;20575;-63
2021/12/31 22:23:42;;;;;;;5.25;2.80;;;11.20;99.90;;;;;;10339993;28;20106;-63
2021/12/31 22:28:44;;;;;;;8.18;4.18;;;11.30;99.90;;;;;;10340129;28;20148;-64
2021/12/31 22:33:45;;;;;;;6.65;3.15;;;11.30;99.90;;;;;;10337795;28;20236;-63
2021/12/31 22:38:49;;;;;;;5.55;2.67;;;11.30;99.90;;;;;;10335474;28;20046;-64
2021/12/31 22:43:51;;;;;;;8.30;2.70;;;11.40;99.90;;;;;;10337171;28;20058;-64
2021/12/31 22:48:53;;;;;;;8.75;3.45;;;11.40;99.90;;;;;;10344725;28;20128;-63
2021/12/31 22:53:54;;;;;;;12.98;3.55;;;11.40;99.90;;;;;;10350177;28;20100;-66
2021/12/31 22:58:56;;;;;;;5.72;3.28;;;11.40;99.90;;;;;;10346495;28;20054;-63
2021/12/31 23:03:58;;;;;;;6.88;4.30;;;11.50;99.90;;;;;;10344917;28;20117;-64
2021/12/31 23:09:00;;;;;;;28.33;13.98;;;11.40;99.90;;;;;;10341529;28;20058;-64
2021/12/31 23:14:02;;;;;;;71.20;41.22;;;11.50;99.90;;;;;;10342450;28;20119;-64
2021/12/31 23:19:19;;;;;;;37.38;19.95;;;11.40;99.90;;;;;;10357134;28;20045;-64
2021/12/31 23:24:20;;;;;;;59.00;32.78;;;11.40;99.90;;;;;;10341481;28;20489;-64
2021/12/31 23:29:22;;;;;;;84.35;44.65;;;11.40;99.90;;;;;;10345792;28;20057;-64
2021/12/31 23:34:24;;;;;;;50.60;28.52;;;11.40;99.90;;;;;;10345680;28;20121;-64
2021/12/31 23:39:43;;;;;;;30.35;15.73;;;11.40;99.90;;;;;;10341980;28;20056;-64
2021/12/31 23:44:45;;;;;;;18.35;9.57;;;11.40;99.90;;;;;;10344539;28;20115;-64
2021/12/31 23:49:47;;;;;;;20.92;12.90;;;11.40;99.90;;;;;;10341402;28;20046;-64
2021/12/31 23:54:50;;;;;;;16.38;7.05;;;11.50;99.90;;;;;;10342440;28;20105;-64
2021/12/31 23:59:53;;;;;;;21.83;9.90;;;11.50;99.90;;;;;;10340955;28;20535;-63
